Time;durP1;ratioP1;P1;durP2;ratioP2;P2;SDS_P1;SDS_P2;PMS_P1;PMS_P2;Temp;Humidity;BMP_temperature;BMP_pressure;BME280_temperature;BME280_humidity;BME280_pressure;Samples;Min_cycle;Max_cycle;Signal;HPM_P1;HPM_P2
2023/12/07 00:01:08;;;;;;;12.17;11.87;;;0.70;99.90;;;;;;5078944;28;20451;-72
2023/12/07 00:03:35;;;;;;;11.70;11.40;;;0.70;99.90;;;;;;5076063;28;20467;-73
2023/12/07 00:06:01;;;;;;;11.97;11.67;;;0.60;99.90;;;;;;5089154;28;20450;-73
2023/12/07 00:08:28;;;;;;;12.90;12.50;;;0.60;99.90;;;;;;5086387;28;20946;-72
2023/12/07 00:10:56;;;;;;;12.23;11.93;;;0.70;99.90;;;;;;5077966;28;20467;-74
2023/12/07 00:13:23;;;;;;;10.80;10.60;;;0.70;99.90;;;;;;5082198;28;20470;-72
2023/12/07 00:15:50;;;;;;;9.90;9.70;;;0.60;99.90;;;;;;5099008;28;20481;-71
2023/12/07 00:18:17;;;;;;;9.70;9.50;;;0.50;99.90;;;;;;5091935;28;20462;-72
2023/12/07 00:20:43;;;;;;;10.10;9.90;;;0.30;99.90;;;;;;5078594;28;20466;-73
2023/12/07 00:23:10;;;;;;;10.07;9.87;;;0.30;99.90;;;;;;5082410;28;20458;-74
2023/12/07 00:25:37;;;;;;;10.07;9.87;;;0.30;99.90;;;;;;5089223;28;20815;-71
2023/12/07 00:28:07;;;;;;;9.27;9.07;;;0.30;99.90;;;;;;5084743;28;20459;-73
2023/12/07 00:30:35;;;;;;;10.10;9.90;;;0.20;99.90;;;;;;5069100;28;20798;-72
2023/12/07 00:33:03;;;;;;;9.90;9.70;;;0.10;99.90;;;;;;5087771;28;20890;-72
2023/12/07 00:35:30;;;;;;;9.73;9.53;;;0.10;99.90;;;;;;5082661;28;20483;-71
2023/12/07 00:37:57;;;;;;;10.20;10.00;;;0.10;99.90;;;;;;5080119;28;20765;-72
2023/12/07 00:40:24;;;;;;;9.97;9.77;;;0.20;99.90;;;;;;5084994;28;20467;-72
2023/12/07 00:42:51;;;;;;;10.07;9.87;;;0.20;99.90;;;;;;5069144;28;20522;-72
2023/12/07 00:45:19;;;;;;;10.13;9.93;;;0.20;99.90;;;;;;5087215;28;20462;-72
2023/12/07 00:47:46;;;;;;;10.20;10.00;;;0.10;99.90;;;;;;5077386;28;20884;-72
2023/12/07 00:50:15;;;;;;;10.13;9.93;;;0.20;99.90;;;;;;5094643;28;20533;-71
2023/12/07 00:52:42;;;;;;;9.53;9.33;;;0.10;99.90;;;;;;5089243;28;20461;-72
2023/12/07 00:55:09;;;;;;;9.43;9.23;;;0.10;99.90;;;;;;5089315;28;20505;-72
2023/12/07 00:57:36;;;;;;;9.73;9.53;;;0.10;99.90;;;;;;5075936;28;21049;-73
2023/12/07 01:00:03;;;;;;;9.07;8.87;;;0.00;99.90;;;;;;5075313;28;20466;-72
2023/12/07 01:02:31;;;;;;;9.80;9.60;;;0.00;99.90;;;;;;5085235;28;20528;-72
2023/12/07 01:04:59;;;;;;;10.30;10.10;;;0.00;99.90;;;;;;5081275;28;20466;-71
2023/12/07 01:07:26;;;;;;;9.03;8.87;;;0.00;99.90;;;;;;5084027;28;21192;-72
2023/12/07 01:09:52;;;;;;;8.80;8.70;;;0.10;99.90;;;;;;5083434;28;20515;-72
2023/12/07 01:12:23;;;;;;;8.63;8.53;;;0.10;99.90;;;;;;5077867;28;20470;-72
2023/12/07 01:14:51;;;;;;;9.53;9.33;;;0.00;99.90;;;;;;5080429;28;20483;-71
2023/12/07 01:17:18;;;;;;;9.70;9.50;;;0.00;99.90;;;;;;5081367;28;20462;-72
2023/12/07 01:19:46;;;;;;;9.50;9.30;;;0.10;99.90;;;;;;5085354;28;20455;-74
2023/12/07 01:22:13;;;;;;;9.37;9.17;;;0.00;99.90;;;;;;5087138;28;20919;-73
2023/12/07 01:24:40;;;;;;;9.17;8.97;;;0.00;99.90;;;;;;5098601;28;20490;-72
2023/12/07 01:27:07;;;;;;;8.93;8.83;;;0.00;99.90;;;;;;5078030;28;20462;-71
2023/12/07 01:29:34;;;;;;;9.10;8.90;;;0.00;99.90;;;;;;5085966;28;20473;-73
2023/12/07 01:32:01;;;;;;;9.73;9.53;;;-0.10;99.90;;;;;;5088311;28;20458;-71
2023/12/07 01:34:29;;;;;;;11.37;11.07;;;-0.10;99.90;;;;;;5076651;28;20466;-70
2023/12/07 01:36:56;;;;;;;9.93;9.73;;;0.00;99.90;;;;;;5079072;28;20466;-71
2023/12/07 01:39:23;;;;;;;9.37;9.17;;;0.20;99.90;;;;;;5091441;28;20458;-73
2023/12/07 01:41:50;;;;;;;9.70;9.50;;;0.20;99.90;;;;;;5084821;28;20476;-73
2023/12/07 01:44:17;;;;;;;8.80;8.70;;;0.20;99.90;;;;;;5090126;28;20519;-73
2023/12/07 01:46:44;;;;;;;9.20;9.00;;;0.20;99.90;;;;;;5095101;28;20462;-73
2023/12/07 01:49:11;;;;;;;9.00;8.83;;;0.10;99.90;;;;;;5095256;28;21028;-73
2023/12/07 01:51:39;;;;;;;9.03;8.83;;;0.00;99.90;;;;;;5085085;28;20475;-74
2023/12/07 01:54:08;;;;;;;8.50;8.40;;;0.00;99.90;;;;;;5090321;28;20482;-71
2023/12/07 01:56:36;;;;;;;9.23;9.03;;;0.00;99.90;;;;;;5086409;28;20498;-73
2023/12/07 01:59:03;;;;;;;9.00;8.87;;;0.00;99.90;;;;;;5094965;28;20457;-71
2023/12/07 02:01:30;;;;;;;9.27;9.07;;;0.00;99.90;;;;;;5090550;28;20806;-72
2023/12/07 02:03:56;;;;;;;9.50;9.30;;;-0.10;99.90;;;;;;5090472;28;20644;-73
2023/12/07 02:06:23;;;;;;;9.40;9.20;;;0.00;99.90;;;;;;5087625;28;20462;-72
2023/12/07 02:08:51;;;;;;;10.60;10.40;;;0.00;99.90;;;;;;5092706;28;20454;-73
2023/12/07 02:11:19;;;;;;;10.50;10.30;;;0.10;99.90;;;;;;5082584;28;20517;-73
2023/12/07 02:13:48;;;;;;;9.57;9.37;;;0.20;99.90;;;;;;5094623;28;20933;-71
2023/12/07 02:16:20;;;;;;;10.00;9.80;;;0.30;99.90;;;;;;5095680;28;20496;-72
2023/12/07 02:18:52;;;;;;;10.10;9.90;;;0.40;99.90;;;;;;5091998;28;20928;-73
2023/12/07 02:21:26;;;;;;;10.23;10.03;;;0.50;99.90;;;;;;5072923;28;21097;-73
2023/12/07 02:23:54;;;;;;;10.37;10.17;;;0.50;99.90;;;;;;5086672;28;20965;-72
2023/12/07 02:26:53;;;;;;;8.73;8.63;;;0.60;99.90;;;;;;5082089;28;20470;-72
2023/12/07 02:29:20;;;;;;;9.80;9.60;;;0.60;99.90;;;;;;5081277;28;20463;-71
2023/12/07 02:31:47;;;;;;;9.90;9.70;;;0.60;99.90;;;;;;5090307;28;20469;-73
2023/12/07 02:34:15;;;;;;;9.20;9.00;;;0.60;99.90;;;;;;5090060;28;20549;-73
2023/12/07 02:36:44;;;;;;;9.83;9.63;;;0.60;99.90;;;;;;5086122;28;20478;-72
2023/12/07 02:39:13;;;;;;;8.77;8.67;;;0.60;99.90;;;;;;5083573;28;20469;-72
2023/12/07 02:41:41;;;;;;;8.17;8.07;;;0.50;99.90;;;;;;5087522;28;20497;-72
2023/12/07 02:44:10;;;;;;;8.30;8.20;;;0.40;99.90;;;;;;5085653;28;20818;-71
2023/12/07 02:46:36;;;;;;;8.90;8.80;;;0.30;99.90;;;;;;5105715;28;20748;-73
2023/12/07 02:49:03;;;;;;;8.80;8.70;;;0.20;99.90;;;;;;5079239;28;20458;-72
2023/12/07 02:51:30;;;;;;;8.40;8.30;;;0.10;99.90;;;;;;5085450;28;20463;-72
2023/12/07 02:53:57;;;;;;;9.30;9.10;;;0.00;99.90;;;;;;5085467;28;20489;-73
2023/12/07 02:56:24;;;;;;;9.80;9.60;;;0.10;99.90;;;;;;5091099;28;20490;-73
2023/12/07 02:58:51;;;;;;;9.87;9.67;;;0.20;99.90;;;;;;5085832;28;20972;-73
2023/12/07 03:01:19;;;;;;;8.83;8.73;;;0.30;99.90;;;;;;5077283;28;20921;-73
2023/12/07 03:03:47;;;;;;;8.87;8.77;;;0.30;99.90;;;;;;5082821;28;20884;-74
2023/12/07 03:06:15;;;;;;;8.80;8.70;;;0.20;99.90;;;;;;5081176;28;20501;-73
2023/12/07 03:08:42;;;;;;;8.30;8.20;;;0.10;99.90;;;;;;5086271;28;20451;-72
2023/12/07 03:11:09;;;;;;;8.10;8.00;;;-0.10;99.90;;;;;;5090307;28;20966;-72
2023/12/07 03:13:36;;;;;;;9.00;8.83;;;0.00;99.90;;;;;;5085528;28;20469;-72
2023/12/07 03:16:09;;;;;;;8.80;8.70;;;0.00;99.90;;;;;;5085706;28;20477;-72
2023/12/07 03:18:37;;;;;;;8.53;8.43;;;-0.10;99.90;;;;;;5081549;28;20687;-73
2023/12/07 03:21:06;;;;;;;8.70;8.60;;;-0.20;99.90;;;;;;5076780;28;20462;-73
2023/12/07 03:23:33;;;;;;;8.67;8.57;;;-0.30;99.90;;;;;;5092634;28;20497;-73
2023/12/07 03:26:00;;;;;;;10.13;9.93;;;-0.30;99.90;;;;;;5092379;28;20489;-72
2023/12/07 03:28:27;;;;;;;10.30;10.10;;;-0.20;99.90;;;;;;5083562;28;20463;-72
2023/12/07 03:30:54;;;;;;;9.97;9.77;;;-0.10;99.90;;;;;;5081801;28;20476;-72
2023/12/07 03:33:21;;;;;;;8.77;8.67;;;-0.10;99.90;;;;;;5078972;28;20507;-73
2023/12/07 03:35:50;;;;;;;9.23;9.03;;;-0.10;99.90;;;;;;5083553;28;20478;-73
2023/12/07 03:38:17;;;;;;;9.07;8.90;;;-0.10;99.90;;;;;;5085644;28;20450;-73
2023/12/07 03:40:47;;;;;;;9.17;8.97;;;-0.20;99.90;;;;;;5086759;28;20913;-72
2023/12/07 03:43:14;;;;;;;8.70;8.60;;;-0.30;99.90;;;;;;5075903;28;20547;-72
2023/12/07 03:45:42;;;;;;;8.80;8.70;;;-0.30;99.90;;;;;;5086827;28;20469;-73
2023/12/07 03:48:09;;;;;;;8.90;8.80;;;-0.30;99.90;;;;;;5093639;28;20463;-72
2023/12/07 03:50:35;;;;;;;9.00;8.80;;;-0.30;99.90;;;;;;5078758;28;20483;-72
2023/12/07 03:53:03;;;;;;;8.67;8.57;;;-0.20;99.90;;;;;;5082096;28;20451;-73
2023/12/07 03:55:30;;;;;;;8.70;8.60;;;-0.30;99.90;;;;;;5094469;28;20518;-72
2023/12/07 03:57:57;;;;;;;8.63;8.53;;;-0.40;99.90;;;;;;5084023;28;20549;-72
2023/12/07 04:00:24;;;;;;;9.20;9.00;;;-0.50;99.90;;;;;;5074866;28;20474;-72
2023/12/07 04:02:51;;;;;;;9.43;9.23;;;-0.50;99.90;;;;;;5080169;28;20488;-72
2023/12/07 04:05:18;;;;;;;10.13;9.93;;;-0.40;99.90;;;;;;5084106;28;20831;-72
2023/12/07 04:07:45;;;;;;;10.30;10.10;;;-0.40;99.90;;;;;;5083430;28;20549;-72
2023/12/07 04:10:14;;;;;;;9.30;9.10;;;-0.40;99.90;;;;;;5082715;28;20466;-72
2023/12/07 04:12:41;;;;;;;9.13;8.93;;;-0.40;99.90;;;;;;5086011;28;20449;-72
2023/12/07 04:15:08;;;;;;;9.70;9.50;;;-0.50;99.90;;;;;;5090028;28;20458;-72
2023/12/07 04:17:35;;;;;;;9.50;9.30;;;-0.50;99.90;;;;;;5086742;28;20866;-72
2023/12/07 04:20:02;;;;;;;9.60;9.40;;;-0.50;99.90;;;;;;5086998;28;20454;-73
2023/12/07 04:22:30;;;;;;;9.60;9.40;;;-0.60;99.90;;;;;;5075834;28;20458;-71
2023/12/07 04:24:57;;;;;;;9.30;9.10;;;-0.60;99.90;;;;;;5088726;28;20822;-71
2023/12/07 04:27:25;;;;;;;9.13;8.93;;;-0.70;99.90;;;;;;5080575;28;20790;-73
2023/12/07 04:29:52;;;;;;;8.83;8.73;;;-0.70;99.90;;;;;;5085214;28;21024;-72
2023/12/07 04:32:19;;;;;;;9.20;9.00;;;-0.70;99.90;;;;;;5084288;28;20478;-71
2023/12/07 04:34:46;;;;;;;9.17;8.97;;;-0.70;99.90;;;;;;5086810;28;20964;-71
2023/12/07 04:37:13;;;;;;;8.80;8.70;;;-0.60;99.90;;;;;;5077878;28;20491;-71
2023/12/07 04:39:40;;;;;;;9.80;9.60;;;-0.50;99.90;;;;;;5088780;28;20485;-72
2023/12/07 04:42:08;;;;;;;9.67;9.47;;;-0.50;99.90;;;;;;5088985;28;20463;-71
2023/12/07 04:44:37;;;;;;;9.60;9.40;;;-0.40;99.90;;;;;;5074649;28;20464;-73
2023/12/07 04:47:04;;;;;;;9.80;9.60;;;-0.30;99.90;;;;;;5081176;28;20504;-71
2023/12/07 04:49:31;;;;;;;10.40;10.20;;;-0.20;99.90;;;;;;5083505;28;20490;-71
2023/12/07 04:51:58;;;;;;;10.03;9.83;;;-0.10;99.90;;;;;;5081012;28;20470;-71
2023/12/07 04:54:27;;;;;;;10.17;9.97;;;0.00;99.90;;;;;;5085010;28;20497;-71
2023/12/07 04:56:54;;;;;;;10.37;10.17;;;0.10;99.90;;;;;;5078136;28;20896;-72
2023/12/07 04:59:21;;;;;;;10.10;9.90;;;0.20;99.90;;;;;;5086118;28;20541;-72
2023/12/07 05:01:50;;;;;;;10.90;10.60;;;0.20;99.90;;;;;;5082738;28;20549;-72
2023/12/07 05:04:17;;;;;;;11.33;11.03;;;0.30;99.90;;;;;;5081547;28;21036;-72
2023/12/07 05:06:44;;;;;;;11.00;10.70;;;0.40;99.90;;;;;;5069836;28;20486;-72
2023/12/07 05:09:11;;;;;;;11.10;10.80;;;0.40;99.90;;;;;;5068843;28;20466;-72
2023/12/07 05:11:39;;;;;;;11.60;11.30;;;0.50;99.90;;;;;;5080457;28;20589;-71
2023/12/07 05:14:07;;;;;;;11.13;10.83;;;0.60;99.90;;;;;;5095215;28;20496;-72
2023/12/07 05:16:34;;;;;;;11.60;11.30;;;0.60;99.90;;;;;;5087658;28;20494;-71
2023/12/07 05:19:02;;;;;;;11.90;11.60;;;0.60;99.90;;;;;;5076183;28;20891;-71
2023/12/07 05:21:29;;;;;;;12.10;11.80;;;0.60;99.90;;;;;;5071722;28;20949;-72
2023/12/07 05:23:56;;;;;;;10.87;10.57;;;0.60;99.90;;;;;;5070692;28;20459;-71
2023/12/07 05:26:23;;;;;;;11.33;11.03;;;0.70;99.90;;;;;;5087141;28;20465;-71
2023/12/07 05:28:50;;;;;;;11.80;11.50;;;0.60;99.90;;;;;;5087871;28;20458;-71
2023/12/07 05:31:17;;;;;;;11.63;11.33;;;0.60;99.90;;;;;;5072219;28;20597;-72
2023/12/07 05:33:43;;;;;;;11.80;11.50;;;0.70;99.90;;;;;;5085382;28;20462;-71
2023/12/07 05:36:12;;;;;;;11.90;11.60;;;0.60;99.90;;;;;;5086980;28;20486;-72
2023/12/07 05:38:39;;;;;;;11.93;11.63;;;0.60;99.90;;;;;;5069458;28;20462;-71
2023/12/07 05:41:06;;;;;;;11.70;11.40;;;0.60;99.90;;;;;;5072456;28;20462;-71
2023/12/07 05:43:34;;;;;;;12.60;12.20;;;0.60;99.90;;;;;;5085702;28;20461;-72
2023/12/07 05:46:01;;;;;;;12.00;11.70;;;0.60;99.90;;;;;;5077402;28;20965;-73
2023/12/07 05:48:28;;;;;;;11.70;11.40;;;0.60;99.90;;;;;;5071858;28;20467;-72
2023/12/07 05:50:55;;;;;;;11.70;11.40;;;0.60;99.90;;;;;;5077321;28;20549;-72
2023/12/07 05:53:24;;;;;;;12.20;11.90;;;0.60;99.90;;;;;;5083684;28;20928;-71
2023/12/07 05:55:51;;;;;;;12.43;12.03;;;0.50;99.90;;;;;;5078697;28;20786;-72
2023/12/07 05:58:18;;;;;;;11.97;11.67;;;0.50;99.90;;;;;;5079911;28;20470;-71
2023/12/07 06:00:46;;;;;;;11.53;11.23;;;0.40;99.90;;;;;;5087889;28;20564;-72
2023/12/07 06:03:13;;;;;;;11.40;11.10;;;0.40;99.90;;;;;;5084055;28;20494;-73
2023/12/07 06:05:41;;;;;;;11.20;10.90;;;0.30;99.90;;;;;;5073271;28;20935;-72
2023/12/07 06:08:08;;;;;;;11.80;11.50;;;0.20;99.90;;;;;;5072731;28;20961;-71
2023/12/07 06:10:36;;;;;;;11.40;11.10;;;0.20;99.90;;;;;;5086391;28;20553;-72
2023/12/07 06:13:04;;;;;;;11.17;10.87;;;0.20;99.90;;;;;;5081935;28;21040;-72
2023/12/07 06:15:31;;;;;;;10.80;10.57;;;0.10;99.90;;;;;;5082343;28;20836;-73
2023/12/07 06:17:59;;;;;;;11.07;10.77;;;0.20;99.90;;;;;;5075300;28;20478;-71
2023/12/07 06:20:26;;;;;;;10.60;10.40;;;0.10;99.90;;;;;;5084530;28;20549;-73
2023/12/07 06:22:53;;;;;;;11.20;10.90;;;0.00;99.90;;;;;;5075715;28;20473;-72
2023/12/07 06:25:20;;;;;;;10.50;10.30;;;0.00;99.90;;;;;;5081213;28;20508;-73
2023/12/07 06:27:49;;;;;;;10.30;10.10;;;0.00;99.90;;;;;;5078086;28;20466;-72
2023/12/07 06:30:16;;;;;;;10.30;10.10;;;-0.10;99.90;;;;;;5080548;28;20825;-73
2023/12/07 06:32:43;;;;;;;11.03;10.73;;;-0.10;99.90;;;;;;5078547;28;20489;-72
2023/12/07 06:35:13;;;;;;;9.90;9.70;;;-0.10;99.90;;;;;;5086919;28;20898;-72
2023/12/07 06:37:41;;;;;;;9.63;9.43;;;-0.20;99.90;;;;;;5080732;28;20498;-72
2023/12/07 06:40:10;;;;;;;11.10;10.80;;;-0.20;99.90;;;;;;5080610;28;20465;-72
2023/12/07 06:42:37;;;;;;;9.80;9.60;;;-0.20;99.90;;;;;;5087760;28;20461;-72
2023/12/07 06:45:10;;;;;;;9.60;9.40;;;-0.20;99.90;;;;;;5082226;28;20545;-72
2023/12/07 06:47:38;;;;;;;10.30;10.10;;;-0.40;99.90;;;;;;5085399;28;20598;-72
2023/12/07 06:50:08;;;;;;;9.80;9.60;;;-0.40;99.90;;;;;;5090113;28;21344;-71
2023/12/07 06:52:34;;;;;;;10.17;9.97;;;-0.40;99.90;;;;;;5085136;28;20458;-71
2023/12/07 06:55:01;;;;;;;10.20;10.00;;;-0.40;99.90;;;;;;5078014;28;20466;-71
2023/12/07 06:57:28;;;;;;;10.00;9.80;;;-0.50;99.90;;;;;;5080508;28;20983;-72
2023/12/07 06:59:55;;;;;;;10.40;10.20;;;-0.60;99.90;;;;;;5076018;28;20458;-71
2023/12/07 07:02:23;;;;;;;10.03;9.83;;;-0.60;99.90;;;;;;5093789;28;20451;-71
2023/12/07 07:04:50;;;;;;;10.80;10.57;;;-0.70;99.90;;;;;;5085308;28;20454;-71
2023/12/07 07:07:17;;;;;;;11.20;10.90;;;-0.80;99.90;;;;;;5086426;28;20459;-71
2023/12/07 07:09:45;;;;;;;10.67;10.40;;;-0.80;99.90;;;;;;5079382;28;20469;-71
2023/12/07 07:12:12;;;;;;;9.83;9.63;;;-0.70;99.90;;;;;;5076676;28;20502;-72
2023/12/07 07:14:40;;;;;;;10.03;9.83;;;-0.80;99.90;;;;;;5083253;28;20474;-71
2023/12/07 07:17:07;;;;;;;9.90;9.70;;;-0.80;99.90;;;;;;5086083;28;20478;-72
2023/12/07 07:19:37;;;;;;;10.10;9.90;;;-0.80;99.90;;;;;;5084932;28;20463;-71
2023/12/07 07:22:04;;;;;;;9.67;9.47;;;-0.80;99.90;;;;;;5081418;28;20503;-71
2023/12/07 07:24:31;;;;;;;10.50;10.30;;;-0.70;99.90;;;;;;5089562;28;20474;-71
2023/12/07 07:26:59;;;;;;;10.10;9.90;;;-0.70;99.90;;;;;;5080350;28;20754;-71
2023/12/07 07:29:27;;;;;;;9.87;9.67;;;-0.70;99.90;;;;;;5080725;28;20466;-72
2023/12/07 07:31:55;;;;;;;10.30;10.10;;;-0.60;99.90;;;;;;5089194;28;20447;-72
2023/12/07 07:34:22;;;;;;;9.37;9.17;;;-0.70;99.90;;;;;;5075797;28;20602;-71
2023/12/07 07:36:51;;;;;;;9.57;9.37;;;-0.70;99.90;;;;;;5071749;28;20514;-71
2023/12/07 07:39:18;;;;;;;10.10;9.90;;;-0.80;99.90;;;;;;5071667;28;20474;-71
2023/12/07 07:41:45;;;;;;;9.67;9.47;;;-0.90;99.90;;;;;;5075219;28;20467;-72
2023/12/07 07:44:12;;;;;;;10.00;9.80;;;-0.90;99.90;;;;;;5076607;28;20469;-72
2023/12/07 07:46:41;;;;;;;10.20;10.00;;;-1.10;99.90;;;;;;5070231;28;20460;-71
2023/12/07 07:49:08;;;;;;;10.17;9.97;;;-1.10;99.90;;;;;;5074837;28;20471;-71
2023/12/07 07:51:35;;;;;;;10.10;9.90;;;-1.20;99.90;;;;;;5071270;28;20527;-71
2023/12/07 07:54:03;;;;;;;9.93;9.73;;;-1.20;99.90;;;;;;5074785;28;20530;-71
2023/12/07 07:56:30;;;;;;;10.07;9.87;;;-1.30;99.90;;;;;;5078690;28;20957;-70
2023/12/07 07:58:59;;;;;;;9.50;9.30;;;-1.30;99.90;;;;;;5072812;28;20481;-71
2023/12/07 08:01:26;;;;;;;10.07;9.87;;;-1.30;99.90;;;;;;5074397;28;20459;-71
2023/12/07 08:03:53;;;;;;;9.87;9.67;;;-1.30;99.90;;;;;;5072193;28;20463;-70
2023/12/07 08:06:20;;;;;;;9.13;8.93;;;-1.20;99.90;;;;;;5077324;28;20466;-70
2023/12/07 08:08:49;;;;;;;9.73;9.53;;;-1.20;99.90;;;;;;5070429;28;20459;-71
2023/12/07 08:11:17;;;;;;;9.07;8.87;;;-1.20;99.90;;;;;;5076259;28;20878;-70
2023/12/07 08:13:44;;;;;;;9.60;9.40;;;-1.10;99.90;;;;;;5072735;28;20494;-71
2023/12/07 08:16:11;;;;;;;9.07;8.87;;;-1.10;99.90;;;;;;5077034;28;20470;-71
2023/12/07 08:18:38;;;;;;;8.40;8.30;;;-1.00;99.90;;;;;;5070756;28;20491;-70
2023/12/07 08:21:08;;;;;;;9.80;9.60;;;-1.00;99.90;;;;;;5074957;28;20463;-70
2023/12/07 08:23:35;;;;;;;9.40;9.20;;;-1.10;99.90;;;;;;5070140;28;20466;-70
2023/12/07 08:26:03;;;;;;;9.87;9.67;;;-1.10;99.90;;;;;;5073720;28;20585;-70
2023/12/07 08:28:31;;;;;;;9.30;9.10;;;-1.10;99.90;;;;;;5074175;28;20746;-71
2023/12/07 08:30:58;;;;;;;9.33;9.13;;;-1.00;99.90;;;;;;5075891;28;20550;-70
2023/12/07 08:33:25;;;;;;;9.77;9.57;;;-0.90;99.90;;;;;;5076286;28;21182;-70
2023/12/07 08:35:54;;;;;;;9.67;9.47;;;-0.90;99.90;;;;;;5073692;28;20466;-70
2023/12/07 08:38:22;;;;;;;9.90;9.70;;;-0.70;99.90;;;;;;5071093;28;21300;-71
2023/12/07 08:40:49;;;;;;;9.20;9.00;;;-0.60;99.90;;;;;;5076609;28;20910;-70
2023/12/07 08:43:16;;;;;;;9.20;9.00;;;-0.50;99.90;;;;;;5067005;28;20497;-71
2023/12/07 08:45:44;;;;;;;9.30;9.10;;;-0.40;99.90;;;;;;5070572;28;20462;-70
2023/12/07 08:48:11;;;;;;;9.83;9.63;;;-0.40;99.90;;;;;;5067937;28;20506;-71
2023/12/07 08:50:38;;;;;;;9.93;9.73;;;-0.30;99.90;;;;;;5073344;28;20474;-70
2023/12/07 08:53:05;;;;;;;9.67;9.47;;;-0.20;99.90;;;;;;5070597;28;20459;-71
2023/12/07 08:55:33;;;;;;;9.40;9.20;;;-0.20;99.90;;;;;;5074516;28;20935;-70
2023/12/07 08:58:03;;;;;;;9.63;9.43;;;-0.20;99.90;;;;;;5074602;28;20493;-71
2023/12/07 09:00:32;;;;;;;8.60;8.50;;;-0.20;99.90;;;;;;5074959;28;20493;-71
2023/12/07 09:03:01;;;;;;;9.53;9.33;;;-0.20;99.90;;;;;;5074366;28;20562;-71
2023/12/07 09:05:29;;;;;;;9.17;8.97;;;-0.10;99.90;;;;;;5075130;28;20459;-71
2023/12/07 09:07:57;;;;;;;10.00;9.80;;;-0.10;99.90;;;;;;5070721;28;20473;-71
2023/12/07 09:10:24;;;;;;;9.73;9.53;;;-0.10;99.90;;;;;;5069406;28;20462;-71
2023/12/07 09:12:51;;;;;;;10.10;9.90;;;0.00;99.90;;;;;;5073459;28;20885;-71
2023/12/07 09:15:18;;;;;;;9.70;9.50;;;0.00;99.90;;;;;;5071093;28;20474;-71
2023/12/07 09:17:45;;;;;;;10.00;9.80;;;0.00;99.90;;;;;;5075441;28;20486;-71
2023/12/07 09:20:14;;;;;;;10.23;10.03;;;0.00;99.90;;;;;;5073485;28;20473;-71
2023/12/07 09:22:43;;;;;;;10.10;9.90;;;0.10;99.90;;;;;;5072189;28;20590;-71
2023/12/07 09:25:11;;;;;;;9.97;9.77;;;0.20;99.90;;;;;;5074266;28;20493;-71
2023/12/07 09:27:39;;;;;;;9.57;9.37;;;0.30;99.90;;;;;;5076079;28;20462;-72
2023/12/07 09:30:10;;;;;;;9.80;9.60;;;0.30;99.90;;;;;;5070708;28;20462;-72
2023/12/07 09:32:38;;;;;;;9.57;9.37;;;0.30;99.90;;;;;;5074133;28;20473;-72
2023/12/07 09:35:07;;;;;;;10.70;10.40;;;0.40;99.90;;;;;;5073941;28;20498;-72
2023/12/07 09:37:34;;;;;;;10.00;9.80;;;0.40;99.90;;;;;;5073467;28;20813;-72
2023/12/07 09:40:01;;;;;;;10.10;9.90;;;0.50;99.90;;;;;;5071496;28;20466;-73
2023/12/07 09:42:28;;;;;;;10.50;10.30;;;0.50;99.90;;;;;;5070109;28;20463;-73
2023/12/07 09:44:55;;;;;;;10.67;10.37;;;0.60;99.90;;;;;;5076762;28;20466;-73
2023/12/07 09:47:22;;;;;;;10.90;10.60;;;0.60;99.90;;;;;;5070567;28;20503;-73
2023/12/07 09:49:50;;;;;;;10.77;10.47;;;0.70;99.90;;;;;;5075684;28;20464;-73
2023/12/07 09:52:18;;;;;;;11.30;11.00;;;0.70;99.90;;;;;;5074768;28;20509;-72
2023/12/07 09:54:47;;;;;;;10.50;10.30;;;0.70;99.90;;;;;;5071881;28;20451;-72
2023/12/07 09:57:13;;;;;;;11.23;10.93;;;0.80;99.90;;;;;;5076187;28;20462;-73
2023/12/07 09:59:41;;;;;;;12.20;11.80;;;0.80;99.90;;;;;;5077842;28;20454;-72
2023/12/07 10:02:08;;;;;;;11.57;11.27;;;0.80;99.90;;;;;;5076794;28;20983;-73
2023/12/07 10:04:36;;;;;;;11.90;11.60;;;0.80;99.90;;;;;;5074814;28;20553;-73
2023/12/07 10:07:03;;;;;;;12.43;12.10;;;0.80;99.90;;;;;;5079741;28;20469;-73
2023/12/07 10:09:30;;;;;;;12.67;12.27;;;0.90;99.90;;;;;;5076501;28;20753;-73
2023/12/07 10:12:05;;;;;;;13.47;13.07;;;1.00;99.90;;;;;;5073178;28;20470;-73
2023/12/07 10:14:32;;;;;;;13.40;13.00;;;1.00;99.90;;;;;;5078114;28;20462;-73
2023/12/07 10:17:01;;;;;;;13.80;13.30;;;1.10;99.90;;;;;;5077896;28;20474;-72
2023/12/07 10:19:28;;;;;;;13.57;13.17;;;1.10;99.90;;;;;;5063453;28;20917;-72
2023/12/07 10:21:56;;;;;;;13.80;13.40;;;1.20;99.90;;;;;;5079452;28;20811;-73
2023/12/07 10:24:26;;;;;;;14.03;13.53;;;1.20;99.90;;;;;;5073170;28;20488;-72
2023/12/07 10:26:53;;;;;;;13.63;13.23;;;1.30;99.90;;;;;;5073645;28;20481;-72
2023/12/07 10:29:23;;;;;;;14.50;14.00;;;1.40;99.90;;;;;;5076561;28;20495;-72
2023/12/07 10:31:50;;;;;;;14.60;14.10;;;1.40;99.90;;;;;;5077865;28;20899;-72
2023/12/07 10:34:20;;;;;;;14.20;13.70;;;1.50;99.90;;;;;;5072998;28;21623;-71
2023/12/07 10:36:49;;;;;;;13.67;13.27;;;1.50;99.90;;;;;;5077542;28;20570;-72
2023/12/07 10:39:16;;;;;;;14.40;13.90;;;1.50;99.90;;;;;;5072667;28;20494;-71
2023/12/07 10:41:44;;;;;;;13.90;13.40;;;1.60;99.90;;;;;;5078485;28;20502;-71
2023/12/07 10:44:15;;;;;;;14.00;13.50;;;1.70;99.90;;;;;;5077115;28;20879;-71
2023/12/07 10:46:44;;;;;;;13.70;13.20;;;1.70;99.90;;;;;;5078479;28;20477;-72
2023/12/07 10:49:19;;;;;;;14.23;13.73;;;1.70;99.90;;;;;;5078046;28;20479;-71
2023/12/07 10:51:51;;;;;;;14.00;13.50;;;1.70;99.90;;;;;;5075580;28;20923;-71
2023/12/07 10:54:23;;;;;;;14.33;13.83;;;1.80;99.90;;;;;;5074391;28;20463;-71
2023/12/07 10:56:50;;;;;;;14.70;14.20;;;1.80;99.90;;;;;;5077426;28;20470;-71
2023/12/07 10:59:17;;;;;;;14.97;14.43;;;1.90;99.90;;;;;;5078002;28;20494;-71
2023/12/07 11:01:46;;;;;;;14.67;14.17;;;2.00;99.90;;;;;;5073517;28;20470;-71
2023/12/07 11:04:14;;;;;;;15.50;14.90;;;2.10;99.90;;;;;;5077891;28;20545;-71
2023/12/07 11:06:42;;;;;;;14.83;14.33;;;2.40;99.90;;;;;;5073805;28;20528;-71
2023/12/07 11:09:14;;;;;;;15.50;14.90;;;2.80;99.90;;;;;;5076001;28;20463;-71
2023/12/07 11:11:47;;;;;;;15.80;15.20;;;2.80;99.90;;;;;;5078691;28;20463;-70
2023/12/07 11:14:17;;;;;;;15.30;14.70;;;2.80;99.90;;;;;;5074372;28;20589;-70
2023/12/07 11:16:47;;;;;;;15.13;14.53;;;2.60;99.90;;;;;;5076840;28;20506;-70
2023/12/07 11:19:45;;;;;;;14.80;14.20;;;2.60;99.90;;;;;;5077230;28;20525;-69
2023/12/07 11:22:13;;;;;;;15.63;15.03;;;2.60;99.90;;;;;;5069120;28;20463;-70
2023/12/07 11:24:53;;;;;;;15.53;14.93;;;2.60;99.90;;;;;;5078152;28;20495;-70
2023/12/07 11:27:20;;;;;;;15.90;15.20;;;2.70;99.90;;;;;;5077181;28;21013;-70
2023/12/07 11:29:48;;;;;;;15.37;14.77;;;2.80;99.90;;;;;;5074614;28;20490;-69
2023/12/07 11:32:17;;;;;;;15.70;15.00;;;2.90;99.90;;;;;;5073085;28;21193;-69
2023/12/07 11:34:45;;;;;;;14.90;14.30;;;3.20;99.90;;;;;;5080781;28;20466;-71
2023/12/07 11:37:15;;;;;;;14.90;14.30;;;3.70;99.90;;;;;;5075926;28;20455;-69
2023/12/07 11:39:42;;;;;;;15.90;15.20;;;4.10;99.90;;;;;;5071846;28;21135;-71
2023/12/07 11:42:13;;;;;;;15.80;15.10;;;4.60;99.90;;;;;;5077146;28;20470;-71
2023/12/07 11:44:41;;;;;;;16.40;15.60;;;4.70;99.90;;;;;;5077168;28;20463;-71
2023/12/07 11:47:09;;;;;;;17.03;16.23;;;4.90;99.90;;;;;;5078787;28;20495;-70
2023/12/07 11:49:37;;;;;;;16.70;15.90;;;4.90;99.90;;;;;;5067847;28;20915;-71
2023/12/07 11:52:15;;;;;;;16.40;15.60;;;5.30;99.90;;;;;;5073569;28;20462;-70
2023/12/07 11:54:45;;;;;;;17.57;16.67;;;5.50;99.90;;;;;;5077244;28;20463;-72
2023/12/07 11:57:11;;;;;;;17.70;16.80;;;5.50;99.90;;;;;;5073259;28;20547;-69
2023/12/07 11:59:38;;;;;;;18.40;17.40;;;5.60;99.90;;;;;;5076299;28;20518;-71
2023/12/07 12:02:05;;;;;;;18.23;17.33;;;5.40;99.90;;;;;;5072755;28;20466;-71
2023/12/07 12:04:32;;;;;;;19.40;18.30;;;5.60;99.90;;;;;;5077202;28;20463;-71
2023/12/07 12:07:02;;;;;;;18.20;17.20;;;5.50;99.90;;;;;;5071580;28;20765;-72
2023/12/07 12:09:28;;;;;;;18.60;17.60;;;5.90;99.90;;;;;;5074179;28;20459;-71
2023/12/07 12:11:59;;;;;;;19.10;18.10;;;5.90;99.90;;;;;;5077416;28;20809;-70
2023/12/07 12:14:27;;;;;;;20.17;19.07;;;5.90;99.90;;;;;;5073612;28;20470;-71
2023/12/07 12:16:55;;;;;;;20.30;19.10;;;5.70;99.90;;;;;;5072800;28;20983;-72
2023/12/07 12:19:23;;;;;;;20.10;18.90;;;5.70;99.90;;;;;;5071168;28;20694;-72
2023/12/07 12:21:51;;;;;;;20.10;18.90;;;5.80;99.90;;;;;;5074513;28;20463;-72
2023/12/07 12:24:19;;;;;;;19.67;18.57;;;6.00;99.90;;;;;;5073624;28;20487;-72
2023/12/07 12:26:48;;;;;;;19.97;18.80;;;6.10;99.90;;;;;;5077063;28;20558;-72
2023/12/07 12:29:16;;;;;;;20.20;19.00;;;5.80;99.90;;;;;;5076435;28;20462;-72
2023/12/07 12:31:43;;;;;;;20.07;18.87;;;5.80;99.90;;;;;;5074759;28;20831;-71
2023/12/07 12:34:13;;;;;;;20.30;19.10;;;5.90;99.90;;;;;;5070679;28;20473;-70
2023/12/07 12:36:39;;;;;;;19.77;18.67;;;5.90;99.90;;;;;;5071439;28;20464;-70
2023/12/07 12:39:08;;;;;;;20.50;19.30;;;6.00;99.90;;;;;;5074285;28;20869;-70
2023/12/07 12:41:39;;;;;;;20.53;19.33;;;6.10;99.90;;;;;;5072862;28;20615;-72
2023/12/07 12:44:06;;;;;;;20.10;18.90;;;6.30;99.90;;;;;;5073644;28;20983;-69
2023/12/07 12:46:36;;;;;;;21.20;19.90;;;6.30;99.90;;;;;;5075073;28;20463;-70